Time;durP1;ratioP1;P1;durP2;ratioP2;P2;SDS_P1;SDS_P2;PMS_P1;PMS_P2;Temp;Humidity;BMP_temperature;BMP_pressure;BME280_temperature;BME280_humidity;BME280_pressure;Samples;Min_cycle;Max_cycle;Signal;HPM_P1;HPM_P2
2021/05/16 00:01:21;;;;;;;2.17;1.30;;;7.90;99.90;;;;;;5050778;28;20033;-83
2021/05/16 00:03:48;;;;;;;2.33;1.40;;;7.90;99.90;;;;;;5044450;28;20465;-82
2021/05/16 00:06:14;;;;;;;1.30;1.10;;;7.90;99.90;;;;;;5050723;28;20021;-82
2021/05/16 00:08:40;;;;;;;1.77;1.07;;;7.90;99.90;;;;;;5050908;28;20100;-82
2021/05/16 00:11:05;;;;;;;1.83;1.30;;;7.90;99.90;;;;;;5042036;28;20133;-82
2021/05/16 00:13:31;;;;;;;4.43;1.20;;;7.90;99.90;;;;;;5050555;28;20107;-82
2021/05/16 00:15:57;;;;;;;2.70;1.10;;;7.90;99.90;;;;;;5028755;28;20040;-82
2021/05/16 00:18:22;;;;;;;11.87;1.10;;;7.90;99.90;;;;;;5041945;28;20043;-82
2021/05/16 00:20:48;;;;;;;1.13;1.03;;;7.90;99.90;;;;;;5051063;28;20084;-82
2021/05/16 00:23:14;;;;;;;1.80;0.90;;;7.80;99.90;;;;;;5029945;28;20059;-82
2021/05/16 00:25:39;;;;;;;3.20;0.90;;;7.70;99.90;;;;;;5050650;28;20374;-82
2021/05/16 00:28:05;;;;;;;2.60;0.90;;;7.70;99.90;;;;;;5051779;28;20401;-81
2021/05/16 00:30:32;;;;;;;1.10;0.90;;;7.70;99.90;;;;;;5034680;28;20032;-81
2021/05/16 00:32:59;;;;;;;1.23;0.80;;;7.70;99.90;;;;;;5052514;28;20034;-81
2021/05/16 00:35:27;;;;;;;1.20;1.03;;;7.70;99.90;;;;;;5052416;28;20052;-81
2021/05/16 00:37:54;;;;;;;1.10;0.80;;;7.60;99.90;;;;;;5052673;28;20372;-81
2021/05/16 00:40:22;;;;;;;2.80;0.93;;;7.60;99.90;;;;;;5050255;28;20116;-81
2021/05/16 00:42:48;;;;;;;0.97;0.90;;;7.60;99.90;;;;;;5032669;28;20117;-81
2021/05/16 00:45:16;;;;;;;1.23;0.90;;;7.60;99.90;;;;;;5032605;28;20080;-81
2021/05/16 00:47:49;;;;;;;1.43;0.93;;;7.60;99.90;;;;;;5032684;28;20025;-81
2021/05/16 00:50:19;;;;;;;1.63;0.93;;;7.60;99.90;;;;;;5045816;28;20021;-81
2021/05/16 00:52:45;;;;;;;2.93;1.20;;;7.60;99.90;;;;;;5031998;28;20116;-80
2021/05/16 00:55:12;;;;;;;1.43;0.83;;;7.60;99.90;;;;;;5032258;28;20030;-81
2021/05/16 00:57:39;;;;;;;1.00;0.90;;;7.50;99.90;;;;;;5028818;28;20124;-81
2021/05/16 01:00:06;;;;;;;2.20;0.90;;;7.50;99.90;;;;;;5032463;28;20105;-81
2021/05/16 01:02:32;;;;;;;0.80;0.80;;;7.40;99.90;;;;;;5031188;28;20040;-81
2021/05/16 01:04:57;;;;;;;0.83;0.70;;;7.40;99.90;;;;;;5052198;28;20096;-81
2021/05/16 01:07:23;;;;;;;2.17;0.93;;;7.40;99.90;;;;;;5036533;28;20049;-81
2021/05/16 01:09:48;;;;;;;2.57;0.90;;;7.40;99.90;;;;;;5049043;28;20107;-82
2021/05/16 01:12:16;;;;;;;1.53;1.00;;;7.30;99.90;;;;;;5052041;28;20033;-81
2021/05/16 01:14:44;;;;;;;1.27;0.90;;;7.30;99.90;;;;;;5052173;28;20120;-81
2021/05/16 01:17:11;;;;;;;2.30;0.93;;;7.30;99.90;;;;;;5052159;28;20025;-81
2021/05/16 01:19:37;;;;;;;1.27;0.90;;;7.20;99.90;;;;;;5041879;28;20029;-81
2021/05/16 01:22:05;;;;;;;0.93;0.80;;;7.30;99.90;;;;;;5041523;28;20029;-82
2021/05/16 01:24:31;;;;;;;2.07;0.90;;;7.20;99.90;;;;;;5055809;28;20029;-81
2021/05/16 01:26:59;;;;;;;2.57;1.00;;;7.20;99.90;;;;;;5055706;28;20100;-81
2021/05/16 01:29:25;;;;;;;1.97;0.90;;;7.10;99.90;;;;;;5045626;28;20454;-81
2021/05/16 01:31:51;;;;;;;1.93;1.00;;;7.10;99.90;;;;;;5045905;28;20044;-81
2021/05/16 01:34:17;;;;;;;1.67;0.80;;;7.10;99.90;;;;;;5044028;28;20454;-81
2021/05/16 01:36:42;;;;;;;0.97;0.90;;;7.10;99.90;;;;;;5034257;28;20022;-81
2021/05/16 01:39:11;;;;;;;3.73;1.03;;;7.00;99.90;;;;;;5041762;28;20017;-81
2021/05/16 01:41:37;;;;;;;6.20;1.10;;;7.00;99.90;;;;;;5042836;28;20044;-82
2021/05/16 01:44:05;;;;;;;1.30;0.90;;;7.00;99.90;;;;;;5036630;28;20025;-81
2021/05/16 01:46:31;;;;;;;1.43;0.90;;;7.00;99.90;;;;;;5035563;28;20075;-81
2021/05/16 01:48:58;;;;;;;1.00;0.90;;;7.00;99.90;;;;;;5034416;28;20029;-81
2021/05/16 01:51:24;;;;;;;2.80;0.90;;;6.90;99.90;;;;;;5035217;28;20080;-81
2021/05/16 01:53:49;;;;;;;1.50;0.97;;;6.90;99.90;;;;;;5036363;28;20414;-82
2021/05/16 01:56:26;;;;;;;1.33;0.90;;;6.80;99.90;;;;;;5051634;28;20025;-81
2021/05/16 01:58:53;;;;;;;1.60;0.97;;;6.80;99.90;;;;;;5028699;28;20116;-81
2021/05/16 02:01:19;;;;;;;2.83;1.00;;;6.80;99.90;;;;;;5034999;28;20120;-81
2021/05/16 02:03:45;;;;;;;5.80;1.10;;;6.90;99.90;;;;;;5035156;28;20486;-81
2021/05/16 02:06:13;;;;;;;2.73;1.03;;;6.90;99.90;;;;;;5049006;28;20071;-81
2021/05/16 02:08:41;;;;;;;1.90;1.20;;;6.90;99.90;;;;;;5030369;28;20113;-81
2021/05/16 02:11:07;;;;;;;4.97;1.10;;;6.80;99.90;;;;;;5010812;28;20041;-81
2021/05/16 02:13:36;;;;;;;2.57;1.03;;;6.80;99.90;;;;;;5034873;28;20033;-81
2021/05/16 02:16:03;;;;;;;2.67;1.10;;;6.80;99.90;;;;;;5034940;28;20040;-81
2021/05/16 02:18:28;;;;;;;1.87;1.07;;;6.70;99.90;;;;;;5034839;28;20112;-81
2021/05/16 02:20:54;;;;;;;1.83;0.90;;;6.70;99.90;;;;;;5044920;28;20502;-81
2021/05/16 02:23:19;;;;;;;2.00;0.93;;;6.60;99.90;;;;;;5054631;28;20036;-81
2021/05/16 02:25:45;;;;;;;2.00;0.90;;;6.60;99.90;;;;;;5052259;28;20108;-81
2021/05/16 02:28:10;;;;;;;3.87;1.07;;;6.60;99.90;;;;;;5052993;28;20021;-81
2021/05/16 02:30:36;;;;;;;2.50;1.10;;;6.60;99.90;;;;;;5038157;28;20032;-81
2021/05/16 02:33:02;;;;;;;3.17;1.10;;;6.60;99.90;;;;;;5054510;28;20036;-81
2021/05/16 02:35:28;;;;;;;2.43;1.20;;;6.50;99.90;;;;;;5054735;28;20037;-81
2021/05/16 02:37:54;;;;;;;2.93;1.00;;;6.50;99.90;;;;;;5054652;28;20037;-81
2021/05/16 02:40:19;;;;;;;1.73;1.10;;;6.50;99.90;;;;;;5036478;28;20131;-81
2021/05/16 02:42:45;;;;;;;1.80;0.90;;;6.40;99.90;;;;;;5028563;28;20090;-80
2021/05/16 02:45:14;;;;;;;1.73;0.93;;;6.50;99.90;;;;;;5053039;28;20056;-81
2021/05/16 02:47:40;;;;;;;1.57;0.90;;;6.40;99.90;;;;;;5054245;28;20357;-81
2021/05/16 02:50:06;;;;;;;3.47;1.00;;;6.30;99.90;;;;;;5022285;28;20033;-81
2021/05/16 02:52:32;;;;;;;1.73;1.00;;;6.40;99.90;;;;;;5036142;28;20083;-81
2021/05/16 02:54:57;;;;;;;2.90;0.90;;;6.30;99.90;;;;;;5054124;28;20029;-81
2021/05/16 02:57:23;;;;;;;2.23;1.30;;;6.30;99.90;;;;;;5053852;28;20033;-81
2021/05/16 02:59:49;;;;;;;3.03;1.00;;;6.30;99.90;;;;;;5022809;28;20033;-81
2021/05/16 03:02:17;;;;;;;2.77;1.03;;;6.30;99.90;;;;;;5033927;28;20033;-81
2021/05/16 03:04:44;;;;;;;3.20;1.00;;;6.30;99.90;;;;;;5044934;28;20421;-81
2021/05/16 03:07:09;;;;;;;3.07;1.00;;;6.30;99.90;;;;;;5050911;28;20025;-81
2021/05/16 03:09:35;;;;;;;2.80;1.00;;;6.30;99.90;;;;;;5033642;28;20049;-80
2021/05/16 03:12:05;;;;;;;3.37;1.00;;;6.20;99.90;;;;;;5047749;28;20059;-81
2021/05/16 03:14:30;;;;;;;3.03;1.20;;;6.20;99.90;;;;;;5033702;28;20033;-81
2021/05/16 03:16:58;;;;;;;2.47;0.90;;;6.20;99.90;;;;;;5040954;28;20033;-81
2021/05/16 03:19:24;;;;;;;1.20;1.00;;;6.20;99.90;;;;;;5033631;28;20022;-81
2021/05/16 03:21:50;;;;;;;3.20;1.00;;;6.20;99.90;;;;;;5027814;28;20025;-81
2021/05/16 03:24:15;;;;;;;1.80;0.90;;;6.20;99.90;;;;;;5053413;28;20020;-81
2021/05/16 03:26:41;;;;;;;2.13;1.10;;;6.20;99.90;;;;;;5054023;28;20025;-81
2021/05/16 03:29:08;;;;;;;1.27;1.00;;;6.20;99.90;;;;;;5035531;28;20458;-81
2021/05/16 03:31:35;;;;;;;1.20;0.90;;;6.20;99.90;;;;;;5053474;28;20347;-81
2021/05/16 03:34:01;;;;;;;1.70;1.10;;;6.20;99.90;;;;;;5053626;28;20021;-81
2021/05/16 03:36:27;;;;;;;1.50;1.00;;;6.30;99.90;;;;;;5048051;28;20021;-81
2021/05/16 03:38:53;;;;;;;4.07;1.10;;;6.30;99.90;;;;;;5033409;28;20475;-81
2021/05/16 03:41:18;;;;;;;1.77;1.03;;;6.30;99.90;;;;;;5033465;28;20022;-81
2021/05/16 03:43:45;;;;;;;4.40;1.03;;;6.40;99.90;;;;;;5033269;28;20040;-81
2021/05/16 03:46:11;;;;;;;3.67;1.20;;;6.50;99.90;;;;;;5033143;28;20032;-81
2021/05/16 03:48:37;;;;;;;1.47;1.20;;;6.50;99.90;;;;;;5033323;28;20358;-81
2021/05/16 03:51:04;;;;;;;5.67;1.30;;;6.50;99.90;;;;;;5028855;28;20021;-81
2021/05/16 03:53:30;;;;;;;1.50;0.97;;;6.60;99.90;;;;;;5033412;28;20033;-81
2021/05/16 03:55:56;;;;;;;3.63;1.20;;;6.60;99.90;;;;;;5032951;28;20037;-81
2021/05/16 03:58:22;;;;;;;1.70;0.97;;;6.60;99.90;;;;;;5036643;28;20029;-81
2021/05/16 04:00:48;;;;;;;3.07;1.07;;;6.70;99.90;;;;;;5043233;28;20132;-81
2021/05/16 04:03:14;;;;;;;2.13;1.13;;;6.70;99.90;;;;;;5033029;28;20037;-81
2021/05/16 04:05:40;;;;;;;1.83;1.07;;;6.80;99.90;;;;;;5040675;28;20029;-81
2021/05/16 04:08:05;;;;;;;2.53;1.00;;;6.80;99.90;;;;;;5053224;28;20021;-81
2021/05/16 04:10:32;;;;;;;3.00;1.30;;;6.90;99.90;;;;;;5015684;28;20052;-81
2021/05/16 04:12:57;;;;;;;4.93;1.63;;;6.90;99.90;;;;;;5044964;28;20021;-81
2021/05/16 04:15:23;;;;;;;1.67;1.10;;;6.90;99.90;;;;;;5052851;28;20381;-81
2021/05/16 04:17:49;;;;;;;2.80;1.20;;;6.90;99.90;;;;;;5052893;28;20029;-81
2021/05/16 04:20:14;;;;;;;1.13;0.90;;;6.80;99.90;;;;;;5038673;28;20021;-81
2021/05/16 04:22:40;;;;;;;2.87;1.03;;;6.90;99.90;;;;;;5045033;28;20476;-81
2021/05/16 04:25:06;;;;;;;2.77;1.40;;;6.80;99.90;;;;;;5032757;28;20028;-81
2021/05/16 04:27:32;;;;;;;7.13;1.33;;;6.80;99.90;;;;;;5032751;28;20079;-81
2021/05/16 04:29:57;;;;;;;2.87;1.20;;;6.80;99.90;;;;;;5044716;28;20029;-81
2021/05/16 04:32:23;;;;;;;2.27;1.00;;;6.90;99.90;;;;;;5048903;28;20025;-81
2021/05/16 04:34:49;;;;;;;2.53;0.83;;;7.00;99.90;;;;;;5032745;28;20068;-81
2021/05/16 04:37:14;;;;;;;3.10;1.07;;;7.10;99.90;;;;;;5044618;28;20027;-82
2021/05/16 04:39:40;;;;;;;2.23;1.10;;;7.20;99.90;;;;;;5034764;28;20381;-81
2021/05/16 04:42:06;;;;;;;7.10;1.70;;;7.30;99.90;;;;;;5024830;28;20075;-82
2021/05/16 04:44:32;;;;;;;2.47;1.30;;;7.40;99.90;;;;;;5052320;28;20496;-81
2021/05/16 04:46:57;;;;;;;3.93;1.17;;;7.60;99.90;;;;;;5040113;28;20048;-81
2021/05/16 04:49:23;;;;;;;4.87;1.33;;;7.70;99.90;;;;;;5044663;28;20052;-81
2021/05/16 04:51:48;;;;;;;5.40;1.33;;;7.80;99.90;;;;;;5034992;28;20025;-81
2021/05/16 04:54:14;;;;;;;2.87;1.10;;;7.90;99.90;;;;;;5055305;28;20025;-81
2021/05/16 04:56:40;;;;;;;3.40;1.20;;;8.00;99.90;;;;;;5056045;28;20096;-81
2021/05/16 04:59:05;;;;;;;3.80;1.20;;;8.20;99.90;;;;;;5056074;28;20343;-81
2021/05/16 05:01:31;;;;;;;2.60;1.20;;;8.30;99.90;;;;;;5056534;28;20437;-81
2021/05/16 05:03:58;;;;;;;4.63;1.47;;;8.40;99.90;;;;;;5048768;28;20025;-81
2021/05/16 05:06:29;;;;;;;7.53;1.70;;;8.50;99.90;;;;;;5036311;28;20373;-82
2021/05/16 05:08:54;;;;;;;4.43;1.17;;;8.50;99.90;;;;;;5042589;28;20024;-81
2021/05/16 05:11:20;;;;;;;4.20;1.37;;;8.70;99.90;;;;;;5046721;28;20129;-81
2021/05/16 05:13:45;;;;;;;3.83;1.20;;;8.70;99.90;;;;;;5053144;28;20021;-82
2021/05/16 05:16:11;;;;;;;4.43;1.30;;;8.80;99.90;;;;;;5055956;28;20052;-81
2021/05/16 05:18:36;;;;;;;5.40;1.30;;;8.90;99.90;;;;;;5024293;28;20028;-82
2021/05/16 05:21:02;;;;;;;3.73;1.20;;;8.90;99.90;;;;;;5039941;28;20033;-82
2021/05/16 05:23:28;;;;;;;2.97;1.30;;;9.00;99.90;;;;;;5033659;28;20017;-82
2021/05/16 05:25:56;;;;;;;3.70;1.50;;;9.10;99.90;;;;;;5043094;28;20025;-82
2021/05/16 05:28:22;;;;;;;3.37;1.20;;;9.10;99.90;;;;;;5030659;28;20021;-82
2021/05/16 05:30:47;;;;;;;5.67;1.67;;;9.20;99.90;;;;;;5033402;28;20056;-81
2021/05/16 05:33:13;;;;;;;5.30;1.57;;;9.30;99.90;;;;;;5038749;28;20033;-81
2021/05/16 05:35:38;;;;;;;4.27;1.20;;;9.30;99.90;;;;;;5037296;28;20036;-81
2021/05/16 05:38:04;;;;;;;4.47;1.40;;;9.30;99.90;;;;;;5034867;28;20377;-82
2021/05/16 05:40:30;;;;;;;9.10;1.87;;;9.40;99.90;;;;;;5036275;28;20513;-81
2021/05/16 05:42:56;;;;;;;4.57;1.93;;;9.40;99.90;;;;;;5033707;28;20104;-81
2021/05/16 05:45:21;;;;;;;5.20;1.53;;;9.50;99.90;;;;;;5035783;28;20382;-82
2021/05/16 05:47:47;;;;;;;5.73;1.40;;;9.50;99.90;;;;;;5038455;28;20025;-82
2021/05/16 05:50:13;;;;;;;7.43;1.40;;;9.50;99.90;;;;;;5034396;28;20040;-81
2021/05/16 05:52:39;;;;;;;7.10;1.60;;;9.50;99.90;;;;;;5035327;28;20030;-82
2021/05/16 05:55:05;;;;;;;5.63;1.50;;;9.60;99.90;;;;;;5042608;28;20100;-82
2021/05/16 05:57:31;;;;;;;4.40;1.53;;;9.60;99.90;;;;;;5034895;28;20029;-82
2021/05/16 05:59:56;;;;;;;7.53;1.80;;;9.70;99.90;;;;;;5032563;28;20045;-83
2021/05/16 06:02:22;;;;;;;4.83;1.30;;;9.80;99.90;;;;;;5039376;28;20045;-83
2021/05/16 06:04:48;;;;;;;4.83;1.67;;;9.80;99.90;;;;;;5014797;28;20025;-82
2021/05/16 06:07:13;;;;;;;7.40;1.80;;;9.90;99.90;;;;;;5040574;28;20535;-83
2021/05/16 06:09:39;;;;;;;7.40;1.60;;;10.00;99.90;;;;;;5031630;28;20119;-83
2021/05/16 06:12:06;;;;;;;4.77;1.50;;;10.10;99.90;;;;;;5038340;28;20103;-83
2021/05/16 06:14:36;;;;;;;5.60;1.20;;;10.10;99.90;;;;;;5033855;28;20354;-84
2021/05/16 06:17:02;;;;;;;4.27;1.60;;;10.20;99.90;;;;;;5033777;28;20482;-80
2021/05/16 06:19:28;;;;;;;5.80;1.63;;;10.20;99.90;;;;;;5030740;28;20030;-80
2021/05/16 06:21:53;;;;;;;4.80;1.60;;;10.30;99.90;;;;;;5035442;28;20029;-83
2021/05/16 06:24:19;;;;;;;5.10;1.90;;;10.40;99.90;;;;;;5033984;28;20053;-83
2021/05/16 06:26:46;;;;;;;9.77;2.50;;;10.50;99.90;;;;;;5033608;28;20025;-83
2021/05/16 06:29:15;;;;;;;7.57;2.10;;;10.60;99.90;;;;;;5037626;28;20025;-82
2021/05/16 06:31:42;;;;;;;7.97;2.30;;;10.60;99.90;;;;;;5037265;28;20037;-83
2021/05/16 06:34:08;;;;;;;4.80;2.00;;;10.70;99.90;;;;;;5037688;28;20107;-85
2021/05/16 06:36:35;;;;;;;4.63;1.70;;;10.80;99.90;;;;;;5024153;28;20052;-83
2021/05/16 06:39:00;;;;;;;8.73;1.85;;;11.00;99.90;;;;;;5037467;28;20048;-82
2021/05/16 06:41:27;;;;;;;3.72;1.50;;;11.10;99.90;;;;;;5017806;28;20022;-85
2021/05/16 06:43:54;;;;;;;4.65;1.30;;;11.10;99.90;;;;;;5036011;28;20032;-83
2021/05/16 06:46:20;;;;;;;7.95;1.70;;;11.30;99.90;;;;;;5034771;28;20021;-82
2021/05/16 06:48:46;;;;;;;5.07;1.40;;;11.40;99.90;;;;;;5038627;28;20029;-80
2021/05/16 06:51:13;;;;;;;7.20;2.00;;;11.50;99.90;;;;;;5046188;28;20041;-83
2021/05/16 06:53:38;;;;;;;6.63;2.13;;;11.60;99.90;;;;;;5039555;28;20108;-83
2021/05/16 06:56:04;;;;;;;7.40;1.73;;;11.70;99.90;;;;;;5023799;28;20108;-83
2021/05/16 06:58:32;;;;;;;3.63;1.40;;;11.80;99.90;;;;;;5047098;28;20025;-80
2021/05/16 07:00:58;;;;;;;5.28;1.85;;;11.90;99.90;;;;;;5038168;28;20033;-84
2021/05/16 07:03:23;;;;;;;6.90;1.40;;;12.00;99.90;;;;;;5033277;28;20021;-81
2021/05/16 07:05:49;;;;;;;4.70;1.35;;;12.20;99.90;;;;;;5043918;28;20064;-81
2021/05/16 07:08:15;;;;;;;5.43;1.17;;;12.40;99.90;;;;;;5046159;28;20474;-84
2021/05/16 07:10:40;;;;;;;5.18;1.67;;;12.50;99.90;;;;;;5034467;28;20489;-86
2021/05/16 07:13:06;;;;;;;5.25;1.58;;;12.70;99.90;;;;;;5033517;28;20028;-77
2021/05/16 07:15:31;;;;;;;6.38;1.40;;;13.00;99.90;;;;;;5033701;28;20500;-79
2021/05/16 07:17:57;;;;;;;5.43;1.40;;;13.30;99.90;;;;;;5037433;28;20059;-78
2021/05/16 07:20:23;;;;;;;6.07;1.70;;;13.50;99.90;;;;;;5044562;28;20410;-79
2021/05/16 07:22:51;;;;;;;4.97;1.50;;;13.50;99.90;;;;;;5041277;28;20156;-80
2021/05/16 07:25:19;;;;;;;6.38;1.48;;;13.70;99.90;;;;;;5038916;28;20021;-79
2021/05/16 07:27:46;;;;;;;8.32;1.38;;;13.60;99.90;;;;;;5035151;28;20017;-79
2021/05/16 07:30:12;;;;;;;5.43;1.27;;;13.50;99.90;;;;;;5035535;28;20094;-79
2021/05/16 07:32:38;;;;;;;6.18;1.33;;;13.50;99.90;;;;;;5038962;28;20029;-78
2021/05/16 07:35:05;;;;;;;4.78;1.65;;;13.40;99.90;;;;;;5011986;28;20045;-79
2021/05/16 07:37:30;;;;;;;6.93;1.40;;;13.30;99.90;;;;;;5030969;28;20029;-78
2021/05/16 07:39:58;;;;;;;5.20;1.80;;;13.60;99.90;;;;;;5023744;28;20848;-80
2021/05/16 07:42:24;;;;;;;4.30;1.70;;;13.90;99.90;;;;;;5040600;28;20021;-81
2021/05/16 07:44:49;;;;;;;4.03;1.52;;;13.70;99.90;;;;;;5031601;28;20528;-81
2021/05/16 07:47:18;;;;;;;6.55;1.50;;;13.80;99.90;;;;;;5032677;28;20359;-82
2021/05/16 07:49:45;;;;;;;5.85;1.30;;;13.80;99.90;;;;;;5026225;28;20028;-88
2021/05/16 07:52:11;;;;;;;4.95;1.27;;;13.80;99.90;;;;;;5020134;28;20044;-87
2021/05/16 07:54:36;;;;;;;4.60;1.38;;;13.70;99.90;;;;;;5042693;28;20029;-87
2021/05/16 07:57:02;;;;;;;5.88;1.35;;;13.60;99.90;;;;;;5025013;28;20081;-82
2021/05/16 07:59:28;;;;;;;5.10;1.42;;;13.60;99.90;;;;;;5024359;28;20017;-78
2021/05/16 08:01:53;;;;;;;5.85;1.20;;;13.80;99.90;;;;;;5045293;28;20025;-78
2021/05/16 08:04:19;;;;;;;5.30;1.42;;;14.10;99.90;;;;;;5050039;28;20031;-79
2021/05/16 08:06:45;;;;;;;7.25;1.15;;;14.40;99.90;;;;;;5044499;28;20067;-78
2021/05/16 08:09:10;;;;;;;8.68;1.90;;;14.60;99.90;;;;;;5049930;28;20535;-78
2021/05/16 08:11:36;;;;;;;6.72;1.50;;;14.80;99.90;;;;;;5049211;28;20021;-78
2021/05/16 08:14:02;;;;;;;4.90;1.67;;;14.90;99.90;;;;;;5049817;28;20032;-78
2021/05/16 08:16:29;;;;;;;4.03;1.30;;;14.80;99.90;;;;;;5042589;28;20433;-78
2021/05/16 08:18:55;;;;;;;5.18;1.52;;;14.90;99.90;;;;;;5037643;28;20366;-78
2021/05/16 08:21:20;;;;;;;6.25;1.55;;;14.90;99.90;;;;;;5019410;28;20072;-78
2021/05/16 08:23:46;;;;;;;5.38;1.20;;;15.00;99.90;;;;;;5048451;28;20017;-78
2021/05/16 08:26:11;;;;;;;6.90;1.40;;;14.90;99.90;;;;;;5049716;28;20485;-79
2021/05/16 08:28:37;;;;;;;7.68;1.80;;;14.90;99.90;;;;;;5036140;28;20381;-79
2021/05/16 08:31:03;;;;;;;4.05;1.50;;;14.90;99.90;;;;;;5053933;28;20091;-78
2021/05/16 08:33:28;;;;;;;4.05;1.40;;;14.70;99.90;;;;;;5044742;28;20030;-78
2021/05/16 08:35:54;;;;;;;6.50;1.38;;;14.70;99.90;;;;;;5033683;28;20065;-78
2021/05/16 08:38:19;;;;;;;4.15;1.23;;;14.60;99.90;;;;;;5032496;28;20048;-78
2021/05/16 08:40:45;;;;;;;6.20;1.60;;;14.50;99.90;;;;;;5033814;28;20080;-79
2021/05/16 08:43:11;;;;;;;5.32;1.60;;;14.40;99.90;;;;;;5032197;28;20470;-80
2021/05/16 08:45:37;;;;;;;5.53;1.38;;;14.40;99.90;;;;;;5032535;28;20052;-78
2021/05/16 08:48:04;;;;;;;4.53;1.35;;;14.30;99.90;;;;;;5033198;28;20017;-78
2021/05/16 08:50:30;;;;;;;6.05;1.08;;;14.40;99.90;;;;;;5033695;28;20112;-78
2021/05/16 08:52:58;;;;;;;2.97;1.17;;;14.70;99.90;;;;;;5033438;28;20029;-78
2021/05/16 08:55:24;;;;;;;3.10;1.20;;;15.00;99.90;;;;;;5033370;28;20017;-78
2021/05/16 08:57:49;;;;;;;4.63;1.38;;;15.20;99.90;;;;;;5033224;28;20516;-78
2021/05/16 09:00:23;;;;;;;3.88;1.38;;;15.40;99.90;;;;;;5033176;28;20056;-78
2021/05/16 09:03:10;;;;;;;4.75;1.20;;;15.40;99.90;;;;;;5033340;28;20467;-78
2021/05/16 09:05:51;;;;;;;4.95;1.20;;;15.30;99.90;;;;;;5020626;28;20021;-78
2021/05/16 09:08:24;;;;;;;6.35;1.92;;;15.20;99.90;;;;;;5015136;28;20033;-78
2021/05/16 09:11:01;;;;;;;4.47;1.45;;;15.20;99.90;;;;;;5033052;28;20053;-78
2021/05/16 09:13:28;;;;;;;4.30;1.30;;;15.20;99.90;;;;;;5048240;28;20026;-78
2021/05/16 09:16:10;;;;;;;5.57;1.50;;;15.40;99.90;;;;;;5033038;28;20044;-78
2021/05/16 09:18:43;;;;;;;3.92;1.27;;;15.70;99.90;;;;;;5033206;28;20029;-78
2021/05/16 09:21:32;;;;;;;4.22;1.30;;;15.80;99.90;;;;;;5033286;28;20474;-78
2021/05/16 09:24:03;;;;;;;4.57;1.45;;;15.60;99.90;;;;;;5033478;28;20037;-78
2021/05/16 09:26:51;;;;;;;5.38;1.40;;;15.70;99.90;;;;;;5034018;28;20112;-78
2021/05/16 09:29:40;;;;;;;3.10;1.20;;;15.60;99.90;;;;;;5028086;28;20028;-78
2021/05/16 09:32:07;;;;;;;3.63;1.23;;;15.50;99.90;;;;;;5036001;28;20025;-78
2021/05/16 09:34:35;;;;;;;4.15;1.45;;;15.80;99.90;;;;;;5022676;28;20061;-78
2021/05/16 09:37:01;;;;;;;4.25;1.70;;;15.70;99.90;;;;;;5029138;28;20712;-78
2021/05/16 09:39:28;;;;;;;6.30;1.42;;;15.90;99.90;;;;;;5033012;28;20048;-78
2021/05/16 09:42:06;;;;;;;6.18;1.73;;;15.90;99.90;;;;;;5039479;28;20086;-78
2021/05/16 09:44:35;;;;;;;3.55;1.15;;;16.30;99.90;;;;;;5051016;28;20043;-90
2021/05/16 09:47:21;;;;;;;5.53;1.70;;;16.40;99.90;;;;;;5036075;28;20025;-79
2021/05/16 09:49:51;;;;;;;6.60;1.58;;;16.70;99.90;;;;;;5025026;28;20558;-79
2021/05/16 09:52:27;;;;;;;3.95;1.30;;;16.90;99.90;;;;;;5047159;28;20109;-77
2021/05/16 09:55:08;;;;;;;3.78;1.33;;;17.10;99.90;;;;;;5017667;28;20092;-68
2021/05/16 09:57:39;;;;;;;5.30;1.30;;;17.30;99.90;;;;;;5034164;28;20460;-75
2021/05/16 10:00:07;;;;;;;6.63;1.50;;;17.60;98.50;;;;;;5048169;28;20483;-68
2021/05/16 10:02:33;;;;;;;4.70;1.40;;;17.70;99.40;;;;;;5046421;28;20021;-76
2021/05/16 10:05:01;;;;;;;4.45;1.52;;;18.00;99.90;;;;;;5052946;28;20029;-70
2021/05/16 10:07:28;;;;;;;6.25;1.55;;;18.40;97.10;;;;;;5036939;28;20101;-69
2021/05/16 10:09:55;;;;;;;4.78;1.50;;;18.50;93.00;;;;;;5028780;28;20052;-69
2021/05/16 10:12:22;;;;;;;4.03;1.40;;;18.90;93.70;;;;;;5052407;28;20017;-69
2021/05/16 10:15:12;;;;;;;3.05;1.30;;;18.80;91.70;;;;;;5041111;28;20496;-69
2021/05/16 10:17:41;;;;;;;5.60;1.42;;;18.70;90.50;;;;;;5034975;28;20757;-68
2021/05/16 10:20:13;;;;;;;4.88;1.40;;;18.20;90.80;;;;;;5045287;28;20056;-69
2021/05/16 10:22:40;;;;;;;5.28;1.40;;;18.00;90.80;;;;;;5038158;28;20025;-68
2021/05/16 10:25:06;;;;;;;6.53;1.90;;;17.60;92.30;;;;;;5038705;28;20545;-71
2021/05/16 10:27:52;;;;;;;7.22;1.83;;;17.60;93.10;;;;;;5051828;28;20036;-68
2021/05/16 10:30:18;;;;;;;5.72;1.75;;;17.50;92.90;;;;;;5051371;28;20041;-67
2021/05/16 10:32:46;;;;;;;3.25;1.35;;;17.30;93.50;;;;;;5038958;28;20052;-67
2021/05/16 10:35:12;;;;;;;7.88;1.60;;;17.10;92.50;;;;;;5034083;28;20029;-67
2021/05/16 10:37:43;;;;;;;3.42;1.30;;;16.90;92.50;;;;;;5033190;28;20493;-67
2021/05/16 10:40:12;;;;;;;4.93;1.65;;;16.90;93.80;;;;;;5013313;28;20061;-67
2021/05/16 10:42:40;;;;;;;5.60;1.60;;;16.70;95.20;;;;;;5033130;28;20076;-67
2021/05/16 10:45:09;;;;;;;3.65;1.17;;;16.50;95.60;;;;;;5030033;28;20537;-69
2021/05/16 10:47:45;;;;;;;3.65;1.55;;;16.80;95.50;;;;;;5033147;28;20103;-69
2021/05/16 10:50:12;;;;;;;5.53;1.30;;;17.40;96.80;;;;;;5032538;28;20018;-70
2021/05/16 10:52:38;;;;;;;3.50;1.25;;;18.20;95.00;;;;;;5034795;28;20027;-69
2021/05/16 10:55:23;;;;;;;4.45;1.38;;;18.50;92.00;;;;;;5027389;28;20373;-69
2021/05/16 10:57:49;;;;;;;5.22;1.50;;;18.70;91.10;;;;;;5038302;28;20025;-68
2021/05/16 11:00:21;;;;;;;4.75;1.40;;;18.80;90.60;;;;;;5039836;28;20475;-70
2021/05/16 11:03:03;;;;;;;3.15;1.27;;;18.70;90.70;;;;;;5020863;28;20026;-69
2021/05/16 11:05:47;;;;;;;4.45;1.30;;;19.00;89.30;;;;;;5027233;28;20021;-68
2021/05/16 11:08:18;;;;;;;5.18;1.20;;;19.30;82.50;;;;;;5033993;28;20390;-68
2021/05/16 11:10:52;;;;;;;4.78;1.20;;;19.40;85.90;;;;;;5029175;28;20080;-68
2021/05/16 11:13:27;;;;;;;3.53;1.50;;;19.50;82.00;;;;;;5035718;28;20028;-70
2021/05/16 11:16:04;;;;;;;3.13;1.45;;;19.60;82.80;;;;;;5042503;28;20039;-69
2021/05/16 11:18:30;;;;;;;4.10;1.55;;;19.90;82.60;;;;;;5038556;28;20355;-70
2021/05/16 11:20:58;;;;;;;6.60;1.38;;;20.00;80.50;;;;;;5043538;28;20043;-70
2021/05/16 11:23:27;;;;;;;4.90;1.48;;;20.20;84.30;;;;;;5035481;28;20017;-67
2021/05/16 11:26:12;;;;;;;4.38;1.52;;;20.40;82.90;;;;;;5029534;28;20440;-69
2021/05/16 11:28:52;;;;;;;4.93;1.15;;;20.80;77.90;;;;;;5053002;28;20029;-70
2021/05/16 11:31:21;;;;;;;7.00;1.63;;;20.60;74.70;;;;;;5037156;28;20022;-69
2021/05/16 11:33:52;;;;;;;4.40;1.10;;;20.00;76.30;;;;;;5031159;28;20497;-69
2021/05/16 11:36:20;;;;;;;6.63;1.85;;;19.70;83.30;;;;;;5035612;28;20037;-67
2021/05/16 11:38:48;;;;;;;3.58;1.20;;;20.10;80.60;;;;;;5031604;28;20029;-66
2021/05/16 11:41:24;;;;;;;4.22;1.50;;;20.40;74.70;;;;;;5034598;28;20373;-67
2021/05/16 11:43:49;;;;;;;5.75;1.20;;;20.40;75.40;;;;;;5032089;28;20390;-67
2021/05/16 11:46:16;;;;;;;3.33;1.38;;;20.40;76.40;;;;;;5048478;28;20091;-67
2021/05/16 11:48:43;;;;;;;1.88;1.10;;;20.60;71.00;;;;;;5039565;28;20116;-70
2021/05/16 11:51:15;;;;;;;6.43;1.55;;;20.50;75.60;;;;;;5034803;28;20021;-69
2021/05/16 11:53:43;;;;;;;3.72;1.10;;;20.50;70.40;;;;;;5043856;28;20108;-70
2021/05/16 11:56:16;;;;;;;7.22;1.10;;;20.70;68.90;;;;;;5044061;28;20490;-69
2021/05/16 11:59:02;;;;;;;3.85;1.30;;;20.90;68.60;;;;;;5025040;28;20061;-69
2021/05/16 12:01:32;;;;;;;3.60;1.10;;;20.90;70.30;;;;;;5046729;28;20025;-70
2021/05/16 12:04:08;;;;;;;4.43;1.30;;;20.40;67.00;;;;;;5040746;28;20032;-70
2021/05/16 12:06:41;;;;;;;4.07;1.10;;;20.00;69.70;;;;;;5036432;28;20722;-69
2021/05/16 12:09:14;;;;;;;2.58;1.00;;;19.60;69.30;;;;;;5039023;28;20025;-67
2021/05/16 12:11:41;;;;;;;3.35;1.33;;;19.70;72.70;;;;;;5050107;28;20067;-67
2021/05/16 12:14:10;;;;;;;3.42;1.08;;;19.70;71.80;;;;;;5030108;28;20098;-67
2021/05/16 12:16:37;;;;;;;3.25;1.00;;;19.90;73.80;;;;;;5050144;28;20422;-67
2021/05/16 12:19:04;;;;;;;3.85;1.02;;;20.40;73.40;;;;;;5036120;28;20116;-67
2021/05/16 12:21:30;;;;;;;3.00;1.05;;;20.90;66.80;;;;;;5046025;28;20021;-70
2021/05/16 12:23:58;;;;;;;4.18;1.30;;;21.00;66.50;;;;;;5036583;28;20370;-70
2021/05/16 12:26:24;;;;;;;2.30;0.93;;;21.00;65.70;;;;;;5042117;28;20025;-68
2021/05/16 12:28:51;;;;;;;4.18;1.45;;;20.80;66.90;;;;;;5047301;28;20036;-67
2021/05/16 12:31:17;;;;;;;4.65;1.25;;;20.40;66.80;;;;;;5032560;28;20044;-67
2021/05/16 12:33:49;;;;;;;3.38;1.20;;;20.10;67.20;;;;;;5030411;28;20057;-67
2021/05/16 12:36:16;;;;;;;4.38;1.25;;;19.80;67.70;;;;;;5012306;28;20027;-70
2021/05/16 12:38:47;;;;;;;2.28;1.10;;;19.40;68.50;;;;;;5031160;28;20080;-67
2021/05/16 12:41:24;;;;;;;3.25;1.20;;;19.30;68.90;;;;;;5028150;28;20041;-70
2021/05/16 12:44:21;;;;;;;4.38;1.50;;;19.10;69.70;;;;;;5040036;28;20150;-71
2021/05/16 12:46:48;;;;;;;3.38;1.30;;;19.20;69.50;;;;;;5043764;28;20055;-67
2021/05/16 12:49:21;;;;;;;2.15;1.17;;;19.10;70.90;;;;;;5038438;28;20039;-67
2021/05/16 12:52:00;;;;;;;2.65;1.30;;;19.20;69.80;;;;;;5040745;28;20024;-67
2021/05/16 12:54:28;;;;;;;3.53;1.10;;;19.30;69.90;;;;;;5024243;28;20021;-67
2021/05/16 12:57:00;;;;;;;4.43;1.27;;;19.30;70.40;;;;;;5030391;28;20370;-67